This demonstration page uses our WeatherBlox Daily Observations layout. Learn more.

Hourly Observations for July 25, 2017

Temp ( °F °C ) Dew Point ( °F °C ) Humidity (%) Winds ( mph kmh ) Pressure ( in mb ) Visibility ( mi km ) Precip ( " mm )
12:53 am 00:53 Clear 64 17.8 62 16.7 93 93 Calm 30.1 1019 10 16.0934 0 0
1:53 am 01:53 Clear 62 16.7 60 15.6 93 93 NE 3 6 30.11 1020 10 16.0934 0 0
2:53 am 02:53 Clear 64 17.8 60 15.6 87 87 NE 5 7 30.12 1020 10 16.0934 0 0
3:53 am 03:53 Clear 60 15.6 59 15 96 96 Calm 30.12 1020 10 16.0934 0 0
4:53 am 04:53 Clear 59 15 58 14.4 96 96 Calm 30.13 1020 9 14.48406 0 0
5:53 am 05:53 Clear 58 14.4 58 14.4 100 100 Calm 30.15 1021 9 14.48406 0 0
6:53 am 06:53 Sunny 57 13.9 57 13.9 100 100 Calm 30.17 1022 7 11.26538 0 0
7:53 am 07:53 Sunny 64 17.8 61 16.1 90 90 ENE 3 6 30.19 1022 10 16.0934 0 0
8:53 am 08:53 Sunny 68 20 62 16.7 81 81 ESE 3 6 30.2 1023 10 16.0934 0 0
9:53 am 09:53 Sunny 71 21.7 60 15.6 68 68 E 7 11 30.2 1023 10 16.0934 0 0
10:53 am 10:53 Sunny 74 23.3 60 15.6 62 62 ESE 6 9 30.2 1023 10 16.0934 0 0
11:53 am 11:53 Sunny 75 23.9 60 15.6 60 60 VRB 3 6 30.2 1023 10 16.0934 0 0
12:53 pm 12:53 Sunny 77 25 61 16.1 58 58 NE 8 13 30.19 1023 10 16.0934 0 0
1:53 pm 13:53 Sunny 79 26.1 63 17.2 58 58 VRB 6 9 30.19 1022 10 16.0934 0 0
2:53 pm 14:53 Sunny 79 26.1 61 16.1 54 54 VRB 3 6 30.17 1022 10 16.0934 0 0
3:53 pm 15:53 Sunny 80 26.7 63 17.2 56 56 E 9 15 30.18 1022 10 16.0934 0 0
4:53 pm 16:53 Sunny 80 26.7 61 16.1 52 52 ENE 6 9 30.18 1022 10 16.0934 0 0
5:53 pm 17:53 Sunny 79 26.1 62 16.7 56 56 E 8 13 30.16 1021 10 16.0934 0 0
6:53 pm 18:53 Sunny 79 26.1 63 17.2 58 58 NE 9 15 30.16 1021 10 16.0934 0 0
7:53 pm 19:53 Sunny 76 24.4 62 16.7 62 62 E 9 15 30.16 1022 10 16.0934 0 0
8:53 pm 20:53 Sunny 72 22.2 63 17.2 73 73 E 7 11 30.17 1022 10 16.0934 0 0
9:53 pm 21:53 Clear 66 18.9 63 17.2 90 90 E 3 6 30.16 1021 10 16.0934 0 0
10:53 pm 22:53 Clear 67 19.4 62 16.7 84 84 E 5 7 30.18 1022 10 16.0934 0 0
11:53 pm 23:53 Clear 63 17.2 62 16.7 97 97 Calm 30.19 1022 10 16.0934 0 0

Powered by AerisWeather